sensor_id;sensor_type;location;lat;lon;timestamp;P1;durP1;ratioP1;P2;durP2;ratioP2
5475;SDS011;2760;50.000;9.194;2023-02-18T00:01:07;11.67;;;9.57;;
5475;SDS011;2760;50.000;9.194;2023-02-18T00:03:39;10.30;;;8.70;;
5475;SDS011;2760;50.000;9.194;2023-02-18T00:06:11;11.13;;;8.57;;
5475;SDS011;2760;50.000;9.194;2023-02-18T00:08:41;10.80;;;9.00;;
5475;SDS011;2760;50.000;9.194;2023-02-18T00:11:10;13.17;;;9.07;;
5475;SDS011;2760;50.000;9.194;2023-02-18T00:13:39;12.10;;;9.40;;
5475;SDS011;2760;50.000;9.194;2023-02-18T00:16:11;10.53;;;9.00;;
5475;SDS011;2760;50.000;9.194;2023-02-18T00:18:40;9.87;;;7.90;;
5475;SDS011;2760;50.000;9.194;2023-02-18T00:21:13;11.37;;;7.83;;
5475;SDS011;2760;50.000;9.194;2023-02-18T00:23:49;13.93;;;8.53;;
5475;SDS011;2760;50.000;9.194;2023-02-18T00:26:30;12.30;;;8.10;;
5475;SDS011;2760;50.000;9.194;2023-02-18T00:29:01;10.70;;;8.73;;
5475;SDS011;2760;50.000;9.194;2023-02-18T00:31:30;9.80;;;8.00;;
5475;SDS011;2760;50.000;9.194;2023-02-18T00:34:00;11.00;;;7.93;;
5475;SDS011;2760;50.000;9.194;2023-02-18T00:36:30;8.77;;;7.70;;
5475;SDS011;2760;50.000;9.194;2023-02-18T00:39:00;9.20;;;7.67;;
5475;SDS011;2760;50.000;9.194;2023-02-18T00:41:29;11.23;;;7.83;;
5475;SDS011;2760;50.000;9.194;2023-02-18T00:43:59;10.40;;;7.97;;
5475;SDS011;2760;50.000;9.194;2023-02-18T00:46:27;11.00;;;8.80;;
5475;SDS011;2760;50.000;9.194;2023-02-18T00:49:02;9.97;;;8.17;;
5475;SDS011;2760;50.000;9.194;2023-02-18T00:51:33;12.97;;;7.60;;
5475;SDS011;2760;50.000;9.194;2023-02-18T00:54:04;10.73;;;7.73;;
5475;SDS011;2760;50.000;9.194;2023-02-18T00:56:31;10.73;;;7.60;;
5475;SDS011;2760;50.000;9.194;2023-02-18T00:59:03;9.27;;;7.60;;
5475;SDS011;2760;50.000;9.194;2023-02-18T01:01:33;10.93;;;8.77;;
5475;SDS011;2760;50.000;9.194;2023-02-18T01:04:06;9.73;;;8.00;;
5475;SDS011;2760;50.000;9.194;2023-02-18T01:06:36;10.20;;;8.90;;
5475;SDS011;2760;50.000;9.194;2023-02-18T01:09:10;10.67;;;7.80;;
5475;SDS011;2760;50.000;9.194;2023-02-18T01:11:39;10.17;;;8.80;;
5475;SDS011;2760;50.000;9.194;2023-02-18T01:14:08;9.23;;;8.20;;
5475;SDS011;2760;50.000;9.194;2023-02-18T01:16:41;13.23;;;8.83;;
5475;SDS011;2760;50.000;9.194;2023-02-18T01:19:09;10.23;;;7.10;;
5475;SDS011;2760;50.000;9.194;2023-02-18T01:21:37;9.63;;;7.70;;
5475;SDS011;2760;50.000;9.194;2023-02-18T01:24:08;10.83;;;8.90;;
5475;SDS011;2760;50.000;9.194;2023-02-18T01:26:38;8.60;;;7.60;;
5475;SDS011;2760;50.000;9.194;2023-02-18T01:29:05;11.57;;;8.97;;
5475;SDS011;2760;50.000;9.194;2023-02-18T01:31:41;10.33;;;8.50;;
5475;SDS011;2760;50.000;9.194;2023-02-18T01:34:08;11.93;;;8.63;;
5475;SDS011;2760;50.000;9.194;2023-02-18T01:36:36;9.50;;;8.07;;
5475;SDS011;2760;50.000;9.194;2023-02-18T01:39:08;9.20;;;8.07;;
5475;SDS011;2760;50.000;9.194;2023-02-18T01:41:38;8.37;;;7.43;;
5475;SDS011;2760;50.000;9.194;2023-02-18T01:44:17;10.33;;;7.57;;
5475;SDS011;2760;50.000;9.194;2023-02-18T01:46:49;10.23;;;8.20;;
5475;SDS011;2760;50.000;9.194;2023-02-18T01:49:24;8.50;;;7.47;;
5475;SDS011;2760;50.000;9.194;2023-02-18T01:52:11;11.33;;;8.90;;
5475;SDS011;2760;50.000;9.194;2023-02-18T01:54:47;8.73;;;7.83;;
5475;SDS011;2760;50.000;9.194;2023-02-18T01:57:17;11.63;;;9.33;;
5475;SDS011;2760;50.000;9.194;2023-02-18T01:59:51;9.20;;;7.90;;
5475;SDS011;2760;50.000;9.194;2023-02-18T02:02:23;8.33;;;7.40;;
5475;SDS011;2760;50.000;9.194;2023-02-18T02:04:53;9.60;;;8.03;;
5475;SDS011;2760;50.000;9.194;2023-02-18T02:07:25;8.57;;;7.50;;
5475;SDS011;2760;50.000;9.194;2023-02-18T02:09:56;8.40;;;7.50;;
5475;SDS011;2760;50.000;9.194;2023-02-18T02:15:33;10.23;;;8.60;;
5475;SDS011;2760;50.000;9.194;2023-02-18T02:18:15;9.13;;;7.77;;
5475;SDS011;2760;50.000;9.194;2023-02-18T02:24:18;8.90;;;7.60;;
5475;SDS011;2760;50.000;9.194;2023-02-18T02:27:09;10.00;;;7.93;;
5475;SDS011;2760;50.000;9.194;2023-02-18T02:29:59;8.90;;;7.73;;
5475;SDS011;2760;50.000;9.194;2023-02-18T02:32:54;9.07;;;6.40;;
5475;SDS011;2760;50.000;9.194;2023-02-18T02:35:54;8.77;;;6.63;;
5475;SDS011;2760;50.000;9.194;2023-02-18T02:38:30;7.50;;;6.07;;
5475;SDS011;2760;50.000;9.194;2023-02-18T02:41:02;8.60;;;6.40;;
5475;SDS011;2760;50.000;9.194;2023-02-18T02:43:43;9.87;;;6.20;;
5475;SDS011;2760;50.000;9.194;2023-02-18T02:46:18;9.77;;;6.23;;
5475;SDS011;2760;50.000;9.194;2023-02-18T02:48:51;6.73;;;5.50;;
5475;SDS011;2760;50.000;9.194;2023-02-18T02:51:27;7.90;;;5.43;;
5475;SDS011;2760;50.000;9.194;2023-02-18T02:54:07;5.40;;;4.87;;
5475;SDS011;2760;50.000;9.194;2023-02-18T02:56:44;5.40;;;4.90;;
5475;SDS011;2760;50.000;9.194;2023-02-18T02:59:16;6.70;;;5.03;;
5475;SDS011;2760;50.000;9.194;2023-02-18T03:01:52;10.40;;;4.23;;
5475;SDS011;2760;50.000;9.194;2023-02-18T03:07:46;3.83;;;3.30;;
5475;SDS011;2760;50.000;9.194;2023-02-18T03:10:29;3.30;;;3.10;;
5475;SDS011;2760;50.000;9.194;2023-02-18T03:13:11;3.90;;;3.50;;
5475;SDS011;2760;50.000;9.194;2023-02-18T03:15:48;4.73;;;3.17;;
5475;SDS011;2760;50.000;9.194;2023-02-18T03:18:22;4.87;;;3.37;;
5475;SDS011;2760;50.000;9.194;2023-02-18T03:20:56;4.90;;;3.70;;
5475;SDS011;2760;50.000;9.194;2023-02-18T03:23:35;3.80;;;3.37;;
5475;SDS011;2760;50.000;9.194;2023-02-18T03:26:10;3.60;;;3.30;;
5475;SDS011;2760;50.000;9.194;2023-02-18T03:28:46;8.13;;;3.60;;
5475;SDS011;2760;50.000;9.194;2023-02-18T03:31:19;3.87;;;3.57;;
5475;SDS011;2760;50.000;9.194;2023-02-18T03:33:58;4.90;;;4.40;;
5475;SDS011;2760;50.000;9.194;2023-02-18T03:36:31;4.50;;;3.77;;
5475;SDS011;2760;50.000;9.194;2023-02-18T03:39:14;5.47;;;4.97;;
5475;SDS011;2760;50.000;9.194;2023-02-18T03:41:43;5.33;;;4.83;;
5475;SDS011;2760;50.000;9.194;2023-02-18T03:44:17;5.30;;;4.80;;
5475;SDS011;2760;50.000;9.194;2023-02-18T03:46:45;5.20;;;4.70;;
5475;SDS011;2760;50.000;9.194;2023-02-18T03:49:14;6.00;;;5.03;;
5475;SDS011;2760;50.000;9.194;2023-02-18T03:51:42;7.60;;;5.83;;
5475;SDS011;2760;50.000;9.194;2023-02-18T03:54:11;6.07;;;5.13;;
5475;SDS011;2760;50.000;9.194;2023-02-18T03:56:43;11.20;;;5.50;;
5475;SDS011;2760;50.000;9.194;2023-02-18T03:59:11;8.43;;;5.67;;
5475;SDS011;2760;50.000;9.194;2023-02-18T04:01:43;6.63;;;5.20;;
5475;SDS011;2760;50.000;9.194;2023-02-18T04:04:11;6.37;;;5.17;;
5475;SDS011;2760;50.000;9.194;2023-02-18T04:06:38;7.17;;;5.83;;
5475;SDS011;2760;50.000;9.194;2023-02-18T04:09:06;7.03;;;6.10;;
5475;SDS011;2760;50.000;9.194;2023-02-18T04:11:51;5.97;;;5.00;;
5475;SDS011;2760;50.000;9.194;2023-02-18T04:14:22;6.07;;;5.47;;
5475;SDS011;2760;50.000;9.194;2023-02-18T04:16:50;7.00;;;5.30;;
5475;SDS011;2760;50.000;9.194;2023-02-18T04:19:17;7.00;;;5.73;;
5475;SDS011;2760;50.000;9.194;2023-02-18T04:21:45;8.40;;;5.80;;
5475;SDS011;2760;50.000;9.194;2023-02-18T04:24:14;8.00;;;5.80;;
5475;SDS011;2760;50.000;9.194;2023-02-18T04:26:43;7.77;;;5.40;;
5475;SDS011;2760;50.000;9.194;2023-02-18T04:29:12;5.27;;;4.23;;
5475;SDS011;2760;50.000;9.194;2023-02-18T04:31:41;4.50;;;4.10;;
5475;SDS011;2760;50.000;9.194;2023-02-18T04:34:22;5.90;;;5.10;;
5475;SDS011;2760;50.000;9.194;2023-02-18T04:36:53;6.30;;;5.20;;
5475;SDS011;2760;50.000;9.194;2023-02-18T04:39:21;5.13;;;4.70;;
5475;SDS011;2760;50.000;9.194;2023-02-18T04:41:51;6.50;;;5.10;;
5475;SDS011;2760;50.000;9.194;2023-02-18T04:44:20;8.10;;;5.57;;
5475;SDS011;2760;50.000;9.194;2023-02-18T04:46:50;7.50;;;5.47;;
5475;SDS011;2760;50.000;9.194;2023-02-18T04:49:18;7.50;;;6.00;;
5475;SDS011;2760;50.000;9.194;2023-02-18T04:51:47;8.03;;;5.77;;
5475;SDS011;2760;50.000;9.194;2023-02-18T04:54:15;8.50;;;6.33;;
5475;SDS011;2760;50.000;9.194;2023-02-18T04:56:43;10.93;;;6.77;;
5475;SDS011;2760;50.000;9.194;2023-02-18T04:59:10;6.93;;;6.13;;
5475;SDS011;2760;50.000;9.194;2023-02-18T05:01:39;9.60;;;7.80;;
5475;SDS011;2760;50.000;9.194;2023-02-18T05:04:07;9.73;;;7.63;;
5475;SDS011;2760;50.000;9.194;2023-02-18T05:06:34;9.37;;;7.80;;
5475;SDS011;2760;50.000;9.194;2023-02-18T05:09:09;12.93;;;9.10;;
5475;SDS011;2760;50.000;9.194;2023-02-18T05:11:37;14.43;;;9.23;;
5475;SDS011;2760;50.000;9.194;2023-02-18T05:14:05;13.10;;;8.80;;
5475;SDS011;2760;50.000;9.194;2023-02-18T05:16:33;11.97;;;8.63;;
5475;SDS011;2760;50.000;9.194;2023-02-18T05:19:02;15.13;;;10.30;;
5475;SDS011;2760;50.000;9.194;2023-02-18T05:21:33;14.73;;;9.20;;
5475;SDS011;2760;50.000;9.194;2023-02-18T05:24:00;14.50;;;10.20;;
5475;SDS011;2760;50.000;9.194;2023-02-18T05:26:28;15.37;;;10.37;;
5475;SDS011;2760;50.000;9.194;2023-02-18T05:28:58;16.57;;;11.07;;
5475;SDS011;2760;50.000;9.194;2023-02-18T05:31:25;19.23;;;10.77;;
5475;SDS011;2760;50.000;9.194;2023-02-18T05:33:53;17.30;;;11.13;;
5475;SDS011;2760;50.000;9.194;2023-02-18T05:36:23;15.53;;;10.47;;
5475;SDS011;2760;50.000;9.194;2023-02-18T05:38:50;15.90;;;11.10;;
5475;SDS011;2760;50.000;9.194;2023-02-18T05:41:21;18.47;;;11.77;;
5475;SDS011;2760;50.000;9.194;2023-02-18T05:43:48;18.80;;;11.50;;
5475;SDS011;2760;50.000;9.194;2023-02-18T05:46:29;17.40;;;10.97;;
5475;SDS011;2760;50.000;9.194;2023-02-18T05:48:57;17.40;;;10.90;;
5475;SDS011;2760;50.000;9.194;2023-02-18T05:51:28;23.13;;;12.70;;
5475;SDS011;2760;50.000;9.194;2023-02-18T05:53:55;22.70;;;13.77;;
5475;SDS011;2760;50.000;9.194;2023-02-18T05:56:24;20.23;;;12.10;;
5475;SDS011;2760;50.000;9.194;2023-02-18T05:58:51;17.50;;;12.30;;
5475;SDS011;2760;50.000;9.194;2023-02-18T06:01:21;22.40;;;12.40;;
5475;SDS011;2760;50.000;9.194;2023-02-18T06:03:48;18.17;;;12.60;;
5475;SDS011;2760;50.000;9.194;2023-02-18T06:06:15;20.07;;;13.27;;
5475;SDS011;2760;50.000;9.194;2023-02-18T06:08:47;26.07;;;14.27;;
5475;SDS011;2760;50.000;9.194;2023-02-18T06:11:14;19.40;;;13.80;;
5475;SDS011;2760;50.000;9.194;2023-02-18T06:13:45;21.07;;;13.20;;
5475;SDS011;2760;50.000;9.194;2023-02-18T06:16:15;17.97;;;11.80;;
5475;SDS011;2760;50.000;9.194;2023-02-18T06:18:46;17.00;;;11.50;;
5475;SDS011;2760;50.000;9.194;2023-02-18T06:21:18;12.83;;;9.77;;
5475;SDS011;2760;50.000;9.194;2023-02-18T06:23:49;11.40;;;9.50;;
5475;SDS011;2760;50.000;9.194;2023-02-18T06:26:18;12.20;;;9.67;;
5475;SDS011;2760;50.000;9.194;2023-02-18T06:28:47;11.30;;;8.50;;
5475;SDS011;2760;50.000;9.194;2023-02-18T06:38:46;15.13;;;8.20;;
5475;SDS011;2760;50.000;9.194;2023-02-18T06:41:23;11.70;;;8.77;;
5475;SDS011;2760;50.000;9.194;2023-02-18T06:43:52;10.10;;;6.83;;
5475;SDS011;2760;50.000;9.194;2023-02-18T06:46:20;10.10;;;8.60;;
5475;SDS011;2760;50.000;9.194;2023-02-18T06:48:53;9.27;;;7.73;;
5475;SDS011;2760;50.000;9.194;2023-02-18T06:51:29;10.03;;;7.90;;
5475;SDS011;2760;50.000;9.194;2023-02-18T06:53:57;6.67;;;5.97;;
5475;SDS011;2760;50.000;9.194;2023-02-18T07:15:09;6.87;;;5.60;;
5475;SDS011;2760;50.000;9.194;2023-02-18T07:17:39;9.17;;;5.73;;
5475;SDS011;2760;50.000;9.194;2023-02-18T07:20:11;8.13;;;5.80;;
5475;SDS011;2760;50.000;9.194;2023-02-18T07:26:46;6.03;;;4.90;;
5475;SDS011;2760;50.000;9.194;2023-02-18T07:29:31;6.80;;;5.80;;
5475;SDS011;2760;50.000;9.194;2023-02-18T07:46:24;7.03;;;5.20;;
5475;SDS011;2760;50.000;9.194;2023-02-18T07:48:51;6.10;;;5.50;;
5475;SDS011;2760;50.000;9.194;2023-02-18T07:51:20;7.33;;;5.80;;
5475;SDS011;2760;50.000;9.194;2023-02-18T07:53:51;8.97;;;5.80;;
5475;SDS011;2760;50.000;9.194;2023-02-18T07:56:22;8.83;;;5.70;;
5475;SDS011;2760;50.000;9.194;2023-02-18T07:58:50;6.47;;;5.83;;
5475;SDS011;2760;50.000;9.194;2023-02-18T08:01:24;8.40;;;5.97;;
5475;SDS011;2760;50.000;9.194;2023-02-18T08:03:51;7.60;;;6.03;;
5475;SDS011;2760;50.000;9.194;2023-02-18T08:06:19;5.60;;;4.90;;
5475;SDS011;2760;50.000;9.194;2023-02-18T08:08:50;8.93;;;5.77;;
5475;SDS011;2760;50.000;9.194;2023-02-18T08:11:18;7.10;;;5.17;;
5475;SDS011;2760;50.000;9.194;2023-02-18T08:13:45;7.07;;;5.50;;
5475;SDS011;2760;50.000;9.194;2023-02-18T08:16:13;7.23;;;6.10;;
5475;SDS011;2760;50.000;9.194;2023-02-18T08:18:45;8.50;;;6.23;;
5475;SDS011;2760;50.000;9.194;2023-02-18T08:21:14;8.40;;;6.97;;
5475;SDS011;2760;50.000;9.194;2023-02-18T08:23:41;9.90;;;7.03;;
5475;SDS011;2760;50.000;9.194;2023-02-18T08:26:08;8.27;;;6.47;;
5475;SDS011;2760;50.000;9.194;2023-02-18T08:28:40;9.37;;;6.33;;
5475;SDS011;2760;50.000;9.194;2023-02-18T08:31:12;9.57;;;7.00;;
5475;SDS011;2760;50.000;9.194;2023-02-18T08:33:42;10.57;;;6.80;;
5475;SDS011;2760;50.000;9.194;2023-02-18T08:36:11;10.33;;;7.23;;
5475;SDS011;2760;50.000;9.194;2023-02-18T08:38:39;11.10;;;6.50;;
5475;SDS011;2760;50.000;9.194;2023-02-18T08:41:06;9.73;;;6.90;;
5475;SDS011;2760;50.000;9.194;2023-02-18T08:43:34;12.40;;;6.63;;
5475;SDS011;2760;50.000;9.194;2023-02-18T08:46:03;8.30;;;6.50;;
5475;SDS011;2760;50.000;9.194;2023-02-18T08:48:32;8.33;;;6.33;;
5475;SDS011;2760;50.000;9.194;2023-02-18T08:51:08;16.57;;;6.87;;
5475;SDS011;2760;50.000;9.194;2023-02-18T08:53:41;6.83;;;6.13;;
5475;SDS011;2760;50.000;9.194;2023-02-18T08:56:09;8.77;;;6.70;;
5475;SDS011;2760;50.000;9.194;2023-02-18T08:58:37;9.60;;;5.80;;
5475;SDS011;2760;50.000;9.194;2023-02-18T09:01:05;7.23;;;5.70;;
5475;SDS011;2760;50.000;9.194;2023-02-18T09:03:33;6.90;;;5.60;;
5475;SDS011;2760;50.000;9.194;2023-02-18T09:06:02;9.57;;;5.20;;
5475;SDS011;2760;50.000;9.194;2023-02-18T09:08:31;7.80;;;5.83;;
5475;SDS011;2760;50.000;9.194;2023-02-18T09:11:00;6.40;;;5.23;;
5475;SDS011;2760;50.000;9.194;2023-02-18T09:13:29;6.50;;;5.17;;
5475;SDS011;2760;50.000;9.194;2023-02-18T09:15:58;6.33;;;5.53;;
5475;SDS011;2760;50.000;9.194;2023-02-18T09:18:26;10.13;;;5.37;;
5475;SDS011;2760;50.000;9.194;2023-02-18T09:20:54;7.47;;;4.17;;
5475;SDS011;2760;50.000;9.194;2023-02-18T09:23:23;7.03;;;4.60;;
5475;SDS011;2760;50.000;9.194;2023-02-18T09:25:51;6.00;;;4.60;;
5475;SDS011;2760;50.000;9.194;2023-02-18T09:28:21;4.90;;;4.20;;
5475;SDS011;2760;50.000;9.194;2023-02-18T09:30:49;8.63;;;4.60;;
5475;SDS011;2760;50.000;9.194;2023-02-18T09:33:17;5.83;;;4.70;;
5475;SDS011;2760;50.000;9.194;2023-02-18T09:35:44;5.37;;;4.30;;
5475;SDS011;2760;50.000;9.194;2023-02-18T09:38:12;4.83;;;4.27;;
5475;SDS011;2760;50.000;9.194;2023-02-18T09:40:42;4.43;;;4.03;;
5475;SDS011;2760;50.000;9.194;2023-02-18T09:43:16;3.40;;;3.10;;
5475;SDS011;2760;50.000;9.194;2023-02-18T09:45:49;3.23;;;2.93;;
5475;SDS011;2760;50.000;9.194;2023-02-18T09:48:18;3.00;;;2.80;;
5475;SDS011;2760;50.000;9.194;2023-02-18T09:50:51;4.10;;;2.90;;
5475;SDS011;2760;50.000;9.194;2023-02-18T09:53:19;5.47;;;2.37;;
5475;SDS011;2760;50.000;9.194;2023-02-18T09:55:47;2.33;;;2.13;;
5475;SDS011;2760;50.000;9.194;2023-02-18T09:58:16;2.40;;;2.20;;
5475;SDS011;2760;50.000;9.194;2023-02-18T10:00:47;3.53;;;3.00;;
5475;SDS011;2760;50.000;9.194;2023-02-18T10:03:17;2.57;;;2.37;;
5475;SDS011;2760;50.000;9.194;2023-02-18T10:05:50;2.90;;;2.60;;
5475;SDS011;2760;50.000;9.194;2023-02-18T10:08:22;5.03;;;2.50;;
5475;SDS011;2760;50.000;9.194;2023-02-18T10:10:52;5.40;;;3.17;;
5475;SDS011;2760;50.000;9.194;2023-02-18T10:13:21;6.33;;;2.77;;
5475;SDS011;2760;50.000;9.194;2023-02-18T10:15:50;2.70;;;2.50;;
5475;SDS011;2760;50.000;9.194;2023-02-18T10:18:25;5.50;;;2.73;;
5475;SDS011;2760;50.000;9.194;2023-02-18T10:21:03;6.47;;;2.70;;
5475;SDS011;2760;50.000;9.194;2023-02-18T10:23:34;4.97;;;2.70;;
5475;SDS011;2760;50.000;9.194;2023-02-18T10:26:04;2.47;;;2.27;;
5475;SDS011;2760;50.000;9.194;2023-02-18T10:28:36;4.27;;;3.17;;
5475;SDS011;2760;50.000;9.194;2023-02-18T10:31:04;6.20;;;2.83;;
5475;SDS011;2760;50.000;9.194;2023-02-18T10:33:38;3.93;;;2.33;;
5475;SDS011;2760;50.000;9.194;2023-02-18T10:36:20;3.17;;;2.43;;
5475;SDS011;2760;50.000;9.194;2023-02-18T10:38:59;4.03;;;2.80;;
5475;SDS011;2760;50.000;9.194;2023-02-18T10:41:34;5.73;;;2.57;;
5475;SDS011;2760;50.000;9.194;2023-02-18T10:44:09;9.03;;;2.10;;
5475;SDS011;2760;50.000;9.194;2023-02-18T10:46:44;2.30;;;2.10;;
5475;SDS011;2760;50.000;9.194;2023-02-18T10:49:26;2.43;;;2.23;;
5475;SDS011;2760;50.000;9.194;2023-02-18T10:52:04;4.80;;;2.63;;
5475;SDS011;2760;50.000;9.194;2023-02-18T10:54:50;4.10;;;2.60;;
5475;SDS011;2760;50.000;9.194;2023-02-18T10:57:19;3.93;;;2.80;;
5475;SDS011;2760;50.000;9.194;2023-02-18T11:02:43;9.27;;;2.67;;
5475;SDS011;2760;50.000;9.194;2023-02-18T11:05:16;3.07;;;2.03;;
5475;SDS011;2760;50.000;9.194;2023-02-18T11:07:49;1.53;;;1.43;;
5475;SDS011;2760;50.000;9.194;2023-02-18T11:10:17;1.73;;;1.30;;
5475;SDS011;2760;50.000;9.194;2023-02-18T11:12:49;4.27;;;1.93;;
5475;SDS011;2760;50.000;9.194;2023-02-18T11:15:22;2.93;;;1.80;;
5475;SDS011;2760;50.000;9.194;2023-02-18T11:17:51;4.63;;;1.87;;
5475;SDS011;2760;50.000;9.194;2023-02-18T11:20:22;1.67;;;1.57;;
5475;SDS011;2760;50.000;9.194;2023-02-18T11:22:57;1.60;;;1.50;;
5475;SDS011;2760;50.000;9.194;2023-02-18T11:25:39;1.83;;;1.73;;
5475;SDS011;2760;50.000;9.194;2023-02-18T11:28:22;3.17;;;1.80;;
5475;SDS011;2760;50.000;9.194;2023-02-18T11:30:58;4.00;;;1.83;;
5475;SDS011;2760;50.000;9.194;2023-02-18T11:33:30;2.80;;;2.50;;
5475;SDS011;2760;50.000;9.194;2023-02-18T11:36:02;7.80;;;6.40;;
5475;SDS011;2760;50.000;9.194;2023-02-18T11:38:43;1.97;;;1.63;;
5475;SDS011;2760;50.000;9.194;2023-02-18T11:41:14;2.10;;;1.60;;
5475;SDS011;2760;50.000;9.194;2023-02-18T11:43:44;1.97;;;1.77;;
5475;SDS011;2760;50.000;9.194;2023-02-18T11:46:17;2.03;;;1.77;;
5475;SDS011;2760;50.000;9.194;2023-02-18T11:48:47;19.60;;;2.13;;
5475;SDS011;2760;50.000;9.194;2023-02-18T11:51:17;2.60;;;1.73;;
5475;SDS011;2760;50.000;9.194;2023-02-18T11:53:53;5.23;;;2.03;;
5475;SDS011;2760;50.000;9.194;2023-02-18T11:56:24;2.83;;;1.57;;
5475;SDS011;2760;50.000;9.194;2023-02-18T11:58:53;2.67;;;1.57;;
5475;SDS011;2760;50.000;9.194;2023-02-18T12:01:26;1.47;;;1.37;;
5475;SDS011;2760;50.000;9.194;2023-02-18T12:03:59;2.00;;;1.83;;
5475;SDS011;2760;50.000;9.194;2023-02-18T12:06:33;3.13;;;1.70;;
5475;SDS011;2760;50.000;9.194;2023-02-18T12:09:04;2.50;;;1.70;;
5475;SDS011;2760;50.000;9.194;2023-02-18T12:11:35;1.50;;;1.40;;
5475;SDS011;2760;50.000;9.194;2023-02-18T12:14:16;2.63;;;1.50;;
5475;SDS011;2760;50.000;9.194;2023-02-18T12:16:47;4.77;;;1.93;;
5475;SDS011;2760;50.000;9.194;2023-02-18T12:19:39;1.93;;;1.80;;
5475;SDS011;2760;50.000;9.194;2023-02-18T12:22:26;4.70;;;1.73;;
5475;SDS011;2760;50.000;9.194;2023-02-18T12:25:03;3.10;;;2.00;;
5475;SDS011;2760;50.000;9.194;2023-02-18T12:27:47;2.30;;;2.10;;
5475;SDS011;2760;50.000;9.194;2023-02-18T12:30:25;3.77;;;2.53;;
5475;SDS011;2760;50.000;9.194;2023-02-18T12:33:06;3.80;;;2.33;;
5475;SDS011;2760;50.000;9.194;2023-02-18T12:35:52;4.73;;;2.43;;
5475;SDS011;2760;50.000;9.194;2023-02-18T12:38:37;3.77;;;2.70;;
5475;SDS011;2760;50.000;9.194;2023-02-18T12:41:28;7.30;;;2.20;;
5475;SDS011;2760;50.000;9.194;2023-02-18T12:44:08;4.93;;;2.30;;
5475;SDS011;2760;50.000;9.194;2023-02-18T12:46:51;6.37;;;2.10;;
5475;SDS011;2760;50.000;9.194;2023-02-18T12:52:26;3.53;;;2.27;;
5475;SDS011;2760;50.000;9.194;2023-02-18T12:55:14;5.83;;;2.50;;
5475;SDS011;2760;50.000;9.194;2023-02-18T12:58:04;5.80;;;2.27;;
5475;SDS011;2760;50.000;9.194;2023-02-18T13:00:46;6.20;;;2.00;;
5475;SDS011;2760;50.000;9.194;2023-02-18T13:06:22;2.30;;;2.10;;
5475;SDS011;2760;50.000;9.194;2023-02-18T13:09:03;5.17;;;2.13;;
5475;SDS011;2760;50.000;9.194;2023-02-18T13:11:35;2.00;;;1.80;;
5475;SDS011;2760;50.000;9.194;2023-02-18T13:14:13;2.27;;;2.07;;
5475;SDS011;2760;50.000;9.194;2023-02-18T13:16:46;6.37;;;2.50;;
5475;SDS011;2760;50.000;9.194;2023-02-18T13:19:17;3.23;;;1.80;;
5475;SDS011;2760;50.000;9.194;2023-02-18T13:21:49;6.50;;;2.30;;
5475;SDS011;2760;50.000;9.194;2023-02-18T13:24:23;2.07;;;1.57;;
5475;SDS011;2760;50.000;9.194;2023-02-18T13:27:00;1.93;;;1.83;;
5475;SDS011;2760;50.000;9.194;2023-02-18T13:29:38;2.17;;;1.97;;
5475;SDS011;2760;50.000;9.194;2023-02-18T13:32:11;4.83;;;2.13;;
5475;SDS011;2760;50.000;9.194;2023-02-18T13:34:47;3.43;;;2.43;;
5475;SDS011;2760;50.000;9.194;2023-02-18T13:37:25;2.20;;;1.87;;
5475;SDS011;2760;50.000;9.194;2023-02-18T13:40:01;5.70;;;1.97;;
5475;SDS011;2760;50.000;9.194;2023-02-18T13:42:33;2.40;;;2.20;;
5475;SDS011;2760;50.000;9.194;2023-02-18T13:45:06;3.40;;;2.20;;
5475;SDS011;2760;50.000;9.194;2023-02-18T13:47:57;2.50;;;2.13;;
5475;SDS011;2760;50.000;9.194;2023-02-18T13:50:32;4.97;;;2.50;;
5475;SDS011;2760;50.000;9.194;2023-02-18T13:53:22;2.60;;;2.17;;
5475;SDS011;2760;50.000;9.194;2023-02-18T13:55:57;4.97;;;2.40;;
5475;SDS011;2760;50.000;9.194;2023-02-18T13:58:33;2.40;;;2.20;;
5475;SDS011;2760;50.000;9.194;2023-02-18T14:01:05;9.23;;;2.60;;
5475;SDS011;2760;50.000;9.194;2023-02-18T14:03:52;5.10;;;2.60;;
5475;SDS011;2760;50.000;9.194;2023-02-18T14:06:24;4.27;;;2.23;;
5475;SDS011;2760;50.000;9.194;2023-02-18T14:09:04;2.73;;;2.10;;
5475;SDS011;2760;50.000;9.194;2023-02-18T14:12:14;7.50;;;4.10;;
5475;SDS011;2760;50.000;9.194;2023-02-18T14:14:57;9.63;;;2.90;;
5475;SDS011;2760;50.000;9.194;2023-02-18T14:17:28;8.90;;;2.10;;
5475;SDS011;2760;50.000;9.194;2023-02-18T14:22:58;5.40;;;2.30;;
5475;SDS011;2760;50.000;9.194;2023-02-18T14:25:33;3.40;;;1.87;;
5475;SDS011;2760;50.000;9.194;2023-02-18T14:28:21;3.17;;;2.17;;
5475;SDS011;2760;50.000;9.194;2023-02-18T14:31:05;4.67;;;2.50;;
5475;SDS011;2760;50.000;9.194;2023-02-18T14:33:45;2.70;;;2.43;;
5475;SDS011;2760;50.000;9.194;2023-02-18T14:36:24;3.10;;;2.20;;
5475;SDS011;2760;50.000;9.194;2023-02-18T14:38:59;5.43;;;2.40;;
5475;SDS011;2760;50.000;9.194;2023-02-18T14:41:35;3.07;;;2.30;;
5475;SDS011;2760;50.000;9.194;2023-02-18T14:47:16;5.03;;;2.80;;
5475;SDS011;2760;50.000;9.194;2023-02-18T14:49:51;3.30;;;2.50;;
5475;SDS011;2760;50.000;9.194;2023-02-18T14:52:26;7.60;;;3.03;;
5475;SDS011;2760;50.000;9.194;2023-02-18T14:54:56;2.70;;;2.50;;
5475;SDS011;2760;50.000;9.194;2023-02-18T14:57:28;3.63;;;2.73;;
5475;SDS011;2760;50.000;9.194;2023-02-18T15:00:02;2.97;;;2.67;;
5475;SDS011;2760;50.000;9.194;2023-02-18T15:02:34;3.90;;;3.07;;
5475;SDS011;2760;50.000;9.194;2023-02-18T15:05:13;6.40;;;3.27;;
5475;SDS011;2760;50.000;9.194;2023-02-18T15:07:53;5.70;;;3.20;;
5475;SDS011;2760;50.000;9.194;2023-02-18T15:10:24;5.17;;;2.83;;
5475;SDS011;2760;50.000;9.194;2023-02-18T15:13:02;6.83;;;3.40;;
5475;SDS011;2760;50.000;9.194;2023-02-18T15:15:36;3.10;;;2.73;;
5475;SDS011;2760;50.000;9.194;2023-02-18T15:18:09;5.90;;;2.90;;
5475;SDS011;2760;50.000;9.194;2023-02-18T15:20:47;8.60;;;3.20;;
5475;SDS011;2760;50.000;9.194;2023-02-18T15:23:14;6.00;;;2.80;;
5475;SDS011;2760;50.000;9.194;2023-02-18T15:25:44;3.60;;;2.67;;
5475;SDS011;2760;50.000;9.194;2023-02-18T15:28:21;4.30;;;3.03;;
5475;SDS011;2760;50.000;9.194;2023-02-18T15:30:50;5.17;;;2.83;;
5475;SDS011;2760;50.000;9.194;2023-02-18T15:33:18;4.90;;;3.10;;
5475;SDS011;2760;50.000;9.194;2023-02-18T15:35:46;8.60;;;3.10;;
5475;SDS011;2760;50.000;9.194;2023-02-18T15:38:15;3.90;;;2.90;;
5475;SDS011;2760;50.000;9.194;2023-02-18T15:40:46;2.87;;;2.67;;
5475;SDS011;2760;50.000;9.194;2023-02-18T15:43:18;3.00;;;2.80;;
5475;SDS011;2760;50.000;9.194;2023-02-18T15:45:52;6.57;;;3.20;;
5475;SDS011;2760;50.000;9.194;2023-02-18T15:51:24;5.70;;;3.10;;
5475;SDS011;2760;50.000;9.194;2023-02-18T15:53:53;3.23;;;2.60;;
5475;SDS011;2760;50.000;9.194;2023-02-18T15:56:42;3.93;;;3.47;;
5475;SDS011;2760;50.000;9.194;2023-02-18T15:59:25;7.50;;;3.83;;
5475;SDS011;2760;50.000;9.194;2023-02-18T16:01:55;4.73;;;3.00;;
5475;SDS011;2760;50.000;9.194;2023-02-18T16:04:27;13.50;;;3.90;;
5475;SDS011;2760;50.000;9.194;2023-02-18T16:07:00;7.47;;;3.57;;
5475;SDS011;2760;50.000;9.194;2023-02-18T16:09:31;5.27;;;3.60;;
5475;SDS011;2760;50.000;9.194;2023-02-18T16:12:04;4.87;;;3.30;;
5475;SDS011;2760;50.000;9.194;2023-02-18T16:14:42;12.83;;;4.00;;
5475;SDS011;2760;50.000;9.194;2023-02-18T16:17:15;7.37;;;3.23;;
5475;SDS011;2760;50.000;9.194;2023-02-18T16:19:48;4.10;;;2.63;;
5475;SDS011;2760;50.000;9.194;2023-02-18T16:22:24;2.77;;;2.27;;
5475;SDS011;2760;50.000;9.194;2023-02-18T16:24:59;2.63;;;2.43;;
5475;SDS011;2760;50.000;9.194;2023-02-18T16:27:32;5.33;;;3.10;;
5475;SDS011;2760;50.000;9.194;2023-02-18T16:30:06;4.40;;;3.20;;
5475;SDS011;2760;50.000;9.194;2023-02-18T16:32:46;9.13;;;3.00;;
5475;SDS011;2760;50.000;9.194;2023-02-18T16:35:13;6.77;;;3.17;;
5475;SDS011;2760;50.000;9.194;2023-02-18T16:37:42;5.23;;;3.50;;
5475;SDS011;2760;50.000;9.194;2023-02-18T16:40:18;5.00;;;3.57;;
5475;SDS011;2760;50.000;9.194;2023-02-18T16:42:52;5.30;;;2.93;;
5475;SDS011;2760;50.000;9.194;2023-02-18T16:45:23;6.00;;;3.00;;
5475;SDS011;2760;50.000;9.194;2023-02-18T16:47:58;3.70;;;3.37;;
5475;SDS011;2760;50.000;9.194;2023-02-18T16:50:25;8.53;;;3.13;;
5475;SDS011;2760;50.000;9.194;2023-02-18T16:52:56;3.73;;;2.93;;
5475;SDS011;2760;50.000;9.194;2023-02-18T16:55:24;6.63;;;2.83;;
5475;SDS011;2760;50.000;9.194;2023-02-18T16:57:52;4.00;;;2.70;;
5475;SDS011;2760;50.000;9.194;2023-02-18T17:00:20;3.63;;;2.37;;